createdAt,value
2022-10-29T00:00:53.459Z,2.80
2022-10-29T00:03:23.040Z,3.30
2022-10-29T00:06:02.928Z,3.20
2022-10-29T00:08:33.803Z,3.03
2022-10-29T00:11:10.036Z,3.57
2022-10-29T00:13:39.188Z,3.03
2022-10-29T00:16:14.373Z,2.63
2022-10-29T00:18:42.455Z,4.23
2022-10-29T00:21:14.531Z,4.40
2022-10-29T00:23:42.993Z,2.70
2022-10-29T00:26:11.386Z,2.60
2022-10-29T00:28:39.934Z,3.53
2022-10-29T00:31:12.860Z,2.53
2022-10-29T00:33:41.128Z,3.00
2022-10-29T00:36:13.002Z,3.37
2022-10-29T00:38:41.259Z,3.20
2022-10-29T00:41:13.316Z,3.47
2022-10-29T00:43:47.992Z,2.80
2022-10-29T00:46:22.306Z,2.60
2022-10-29T00:48:53.721Z,3.20
2022-10-29T00:51:22.509Z,2.87
2022-10-29T00:53:55.201Z,3.13
2022-10-29T00:56:25.231Z,3.07
2022-10-29T00:58:53.738Z,3.30
2022-10-29T01:01:23.346Z,3.10
2022-10-29T01:03:52.732Z,3.07
2022-10-29T01:06:21.257Z,3.10
2022-10-29T01:08:49.316Z,3.37
2022-10-29T01:11:27.805Z,3.80
2022-10-29T01:14:07.747Z,3.70
2022-10-29T01:16:48.458Z,3.03
2022-10-29T01:19:36.650Z,4.17
2022-10-29T01:22:13.874Z,2.63
2022-10-29T01:25:04.598Z,3.10
2022-10-29T01:27:57.176Z,3.20
2022-10-29T01:31:00.743Z,2.80
2022-10-29T01:33:37.531Z,2.90
2022-10-29T01:36:18.810Z,2.70
2022-10-29T01:38:56.469Z,3.33
2022-10-29T01:41:32.684Z,3.30
2022-10-29T01:44:11.265Z,3.23
2022-10-29T01:46:47.062Z,3.47
2022-10-29T01:49:22.679Z,3.40
2022-10-29T01:51:52.847Z,3.13
2022-10-29T01:54:22.773Z,3.07
2022-10-29T01:56:56.376Z,3.43
2022-10-29T01:59:36.140Z,2.80
2022-10-29T02:02:25.910Z,3.43
2022-10-29T02:05:10.316Z,2.90
2022-10-29T02:07:50.369Z,2.80
2022-10-29T02:10:27.497Z,3.03
2022-10-29T02:12:58.081Z,2.93
2022-10-29T02:15:32.893Z,3.00
2022-10-29T02:18:04.402Z,3.20
2022-10-29T02:20:32.806Z,3.27
2022-10-29T02:23:01.416Z,3.00
2022-10-29T02:25:30.511Z,2.70
2022-10-29T02:28:00.479Z,3.33
2022-10-29T02:30:28.655Z,2.87
2022-10-29T02:32:57.040Z,2.93
2022-10-29T02:35:26.844Z,2.93
2022-10-29T02:37:54.982Z,2.47
2022-10-29T02:40:23.040Z,3.13
2022-10-29T02:42:51.241Z,3.27
2022-10-29T02:45:19.264Z,2.87
2022-10-29T02:47:47.364Z,3.90
2022-10-29T02:50:15.687Z,3.00
2022-10-29T02:52:45.151Z,3.63
2022-10-29T02:55:13.247Z,3.37
2022-10-29T02:57:43.931Z,3.07
2022-10-29T03:00:14.014Z,3.30
2022-10-29T03:02:42.298Z,2.93
2022-10-29T03:05:11.057Z,2.97
2022-10-29T03:07:39.881Z,3.27
2022-10-29T03:10:10.854Z,3.30
2022-10-29T03:12:38.946Z,3.47
2022-10-29T03:15:08.298Z,2.80
2022-10-29T03:17:36.364Z,2.73
2022-10-29T03:20:06.079Z,2.70
2022-10-29T03:22:34.125Z,2.80
2022-10-29T03:25:02.161Z,2.77
2022-10-29T03:27:31.606Z,3.33
2022-10-29T03:29:59.657Z,2.60
2022-10-29T03:32:27.659Z,2.80
2022-10-29T03:34:58.982Z,3.30
2022-10-29T03:37:28.265Z,2.63
2022-10-29T03:39:56.488Z,3.20
2022-10-29T03:42:24.604Z,3.00
2022-10-29T03:44:54.017Z,2.80
2022-10-29T03:47:22.185Z,2.83
2022-10-29T03:49:50.249Z,2.93
2022-10-29T03:52:18.447Z,3.07
2022-10-29T03:54:46.497Z,3.10
2022-10-29T03:57:14.892Z,3.20
2022-10-29T03:59:44.915Z,2.50
2022-10-29T04:02:16.763Z,3.47
2022-10-29T04:04:44.901Z,3.50
2022-10-29T04:07:13.655Z,3.20
2022-10-29T04:09:41.786Z,3.43
2022-10-29T04:12:10.424Z,3.50
2022-10-29T04:14:44.464Z,3.33
2022-10-29T04:17:14.049Z,3.17
2022-10-29T04:19:43.486Z,2.50
2022-10-29T04:30:35.608Z,3.27
2022-10-29T04:33:03.737Z,2.67
2022-10-29T04:35:33.202Z,2.73
2022-10-29T04:38:01.295Z,3.00
2022-10-29T04:40:29.331Z,3.17
2022-10-29T04:42:57.703Z,3.10
2022-10-29T04:45:26.019Z,2.97
2022-10-29T04:48:00.779Z,3.17
2022-10-29T04:50:29.019Z,3.27
2022-10-29T04:53:01.077Z,3.07
2022-10-29T04:55:29.961Z,2.50
2022-10-29T04:57:58.767Z,2.70
2022-10-29T05:00:27.112Z,3.40
2022-10-29T05:02:55.506Z,2.97
2022-10-29T05:05:24.505Z,2.60
2022-10-29T05:07:59.043Z,2.67
2022-10-29T05:10:31.662Z,3.00
2022-10-29T05:13:00.894Z,3.20
2022-10-29T05:15:30.280Z,3.00
2022-10-29T05:17:59.401Z,2.93
2022-10-29T05:20:28.131Z,2.80
2022-10-29T05:23:00.875Z,3.17
2022-10-29T05:25:31.934Z,3.03
2022-10-29T05:28:05.437Z,2.63
2022-10-29T05:30:34.203Z,3.27
2022-10-29T05:33:09.935Z,3.40
2022-10-29T05:35:38.501Z,2.83
2022-10-29T05:38:07.154Z,3.03
2022-10-29T05:40:36.669Z,2.73
2022-10-29T05:43:04.844Z,3.13
2022-10-29T05:45:32.944Z,2.73
2022-10-29T05:48:03.561Z,3.00
2022-10-29T05:50:33.296Z,2.67
2022-10-29T05:53:03.576Z,3.27
2022-10-29T05:55:33.424Z,3.07
2022-10-29T05:58:05.545Z,3.30
2022-10-29T06:00:37.531Z,3.43
2022-10-29T06:03:05.767Z,2.90
2022-10-29T06:05:34.891Z,2.83
2022-10-29T06:08:03.033Z,2.60
2022-10-29T06:10:31.314Z,2.63
2022-10-29T06:12:59.393Z,2.97
2022-10-29T06:15:29.140Z,3.37
2022-10-29T06:17:57.602Z,3.20
2022-10-29T06:20:26.065Z,2.97
2022-10-29T06:23:00.686Z,3.20
2022-10-29T06:25:29.299Z,3.03
2022-10-29T06:28:02.194Z,2.93
2022-10-29T06:30:33.252Z,3.17
2022-10-29T06:33:02.124Z,3.00
2022-10-29T06:35:30.757Z,2.57
2022-10-29T06:37:59.741Z,3.10
2022-10-29T06:40:28.210Z,3.17
2022-10-29T06:43:03.528Z,3.37
2022-10-29T06:45:34.574Z,2.87
2022-10-29T06:48:05.103Z,3.77
2022-10-29T06:50:33.375Z,2.90
2022-10-29T06:53:03.952Z,2.70
2022-10-29T06:55:32.135Z,2.83
2022-10-29T06:58:01.810Z,3.63
2022-10-29T07:00:30.927Z,3.30
2022-10-29T07:03:01.065Z,3.00
2022-10-29T07:05:29.179Z,2.70
2022-10-29T07:07:57.959Z,3.47
2022-10-29T07:10:29.074Z,2.80
2022-10-29T07:12:57.320Z,3.07
2022-10-29T07:15:27.712Z,2.57
2022-10-29T07:18:01.295Z,3.53
2022-10-29T07:20:32.021Z,3.40
2022-10-29T07:23:01.453Z,3.57
2022-10-29T07:25:31.054Z,3.80
2022-10-29T07:28:05.130Z,3.70
2022-10-29T07:30:33.878Z,3.37
2022-10-29T07:33:03.339Z,3.90
2022-10-29T07:35:31.510Z,2.73
2022-10-29T07:38:05.255Z,3.83
2022-10-29T07:40:38.961Z,3.93
2022-10-29T07:43:07.581Z,3.83
2022-10-29T07:45:35.759Z,2.73
2022-10-29T07:48:08.409Z,3.33
2022-10-29T07:50:37.913Z,3.83
2022-10-29T07:53:08.571Z,3.00
2022-10-29T07:55:36.725Z,3.27
2022-10-29T07:58:07.818Z,2.67
2022-10-29T08:00:38.310Z,3.10
2022-10-29T08:03:08.594Z,3.40
2022-10-29T08:05:36.776Z,3.37
2022-10-29T08:08:05.562Z,3.60
2022-10-29T08:10:34.913Z,3.60
2022-10-29T08:13:06.199Z,3.23
2022-10-29T08:15:35.670Z,2.80
2022-10-29T08:18:04.811Z,3.07
2022-10-29T08:20:34.203Z,2.63
2022-10-29T08:23:02.309Z,2.70
2022-10-29T08:25:30.754Z,2.63
2022-10-29T08:28:03.749Z,3.13
2022-10-29T08:30:32.923Z,2.50
2022-10-29T08:33:01.873Z,2.80
2022-10-29T08:35:30.734Z,2.57
2022-10-29T08:38:01.265Z,2.50
2022-10-29T08:40:33.079Z,2.97
2022-10-29T08:43:46.980Z,2.50
2022-10-29T08:46:22.040Z,3.10
2022-10-29T08:48:57.260Z,2.73
2022-10-29T08:51:29.955Z,2.47
2022-10-29T08:56:51.363Z,2.13
2022-10-29T08:59:22.103Z,3.03
2022-10-29T09:01:52.377Z,2.87
2022-10-29T09:04:26.477Z,3.33
2022-10-29T09:07:23.318Z,2.53
2022-10-29T09:10:03.309Z,2.17
2022-10-29T09:13:02.559Z,2.50
2022-10-29T09:15:59.412Z,2.60
2022-10-29T09:18:42.014Z,3.13
2022-10-29T09:21:22.524Z,2.70
2022-10-29T09:24:05.152Z,2.40
2022-10-29T09:26:45.292Z,2.20
2022-10-29T09:29:47.703Z,2.40
2022-10-29T09:32:22.441Z,2.53
2022-10-29T09:34:53.660Z,2.50
2022-10-29T09:37:26.068Z,2.63
2022-10-29T09:39:57.630Z,2.63
2022-10-29T09:42:36.993Z,2.90
2022-10-29T09:45:09.364Z,2.83
2022-10-29T09:47:48.572Z,2.60
2022-10-29T09:50:27.605Z,2.70
2022-10-29T09:52:55.965Z,2.30
2022-10-29T09:55:28.042Z,2.33
2022-10-29T09:57:58.993Z,2.50
2022-10-29T10:00:29.432Z,2.57
2022-10-29T10:03:04.291Z,2.40
2022-10-29T10:05:35.165Z,3.13
2022-10-29T10:08:20.885Z,2.63
2022-10-29T10:10:54.052Z,2.20
2022-10-29T10:13:27.711Z,2.20
2022-10-29T10:15:58.829Z,2.30
2022-10-29T10:18:39.020Z,2.73
2022-10-29T10:21:10.107Z,2.67
2022-10-29T10:23:46.281Z,2.20
2022-10-29T10:26:39.393Z,2.60
2022-10-29T10:29:15.444Z,2.43
2022-10-29T10:31:45.410Z,2.83
2022-10-29T10:34:20.808Z,2.77
2022-10-29T10:36:53.302Z,2.27
2022-10-29T10:39:29.593Z,2.70
2022-10-29T10:42:00.415Z,2.23
2022-10-29T10:44:30.379Z,2.37
2022-10-29T10:47:06.330Z,2.00
2022-10-29T10:49:37.328Z,2.30
2022-10-29T10:52:19.424Z,2.50
2022-10-29T10:54:55.908Z,2.57
2022-10-29T10:57:27.053Z,2.60
2022-10-29T11:00:06.302Z,2.97
2022-10-29T11:02:50.869Z,2.50
2022-10-29T11:05:21.493Z,2.60
2022-10-29T11:07:59.881Z,2.80
2022-10-29T11:10:35.788Z,1.90
2022-10-29T11:13:11.733Z,2.10
2022-10-29T11:15:51.891Z,2.70
2022-10-29T11:18:26.432Z,2.20
2022-10-29T11:21:06.340Z,2.20
2022-10-29T11:23:47.457Z,2.60
2022-10-29T11:26:21.876Z,2.17
2022-10-29T11:28:58.539Z,2.10
2022-10-29T11:31:38.428Z,2.03
2022-10-29T11:34:16.686Z,2.40
2022-10-29T11:36:53.189Z,2.07
2022-10-29T11:39:29.349Z,2.30
2022-10-29T11:42:00.890Z,2.13
2022-10-29T11:44:33.373Z,1.97
2022-10-29T11:47:24.356Z,2.10
2022-10-29T11:50:13.169Z,2.03
2022-10-29T11:52:49.693Z,2.60
2022-10-29T11:55:36.724Z,2.20
2022-10-29T11:58:16.536Z,2.23
2022-10-29T12:00:58.419Z,2.43
2022-10-29T12:04:03.842Z,2.10
2022-10-29T12:06:41.995Z,2.30
2022-10-29T12:09:38.610Z,2.40
2022-10-29T12:12:17.987Z,2.20
2022-10-29T12:14:51.920Z,2.53
2022-10-29T12:17:28.291Z,2.03
2022-10-29T12:20:03.178Z,2.17
2022-10-29T12:22:39.378Z,2.23
2022-10-29T12:25:25.907Z,3.00
2022-10-29T12:28:06.849Z,2.23
2022-10-29T12:30:46.380Z,2.50
2022-10-29T12:33:25.180Z,2.50
2022-10-29T12:36:04.244Z,2.37
2022-10-29T12:38:40.730Z,2.27
2022-10-29T12:41:16.113Z,2.10
2022-10-29T12:43:45.275Z,3.03
2022-10-29T12:46:25.606Z,2.50
2022-10-29T12:49:07.572Z,2.20
2022-10-29T12:51:46.408Z,2.57
2022-10-29T12:54:30.928Z,2.23
2022-10-29T12:57:07.281Z,2.53
2022-10-29T12:59:37.717Z,2.20
2022-10-29T13:02:30.047Z,2.07
2022-10-29T13:05:17.686Z,2.07
2022-10-29T13:08:36.176Z,2.33
2022-10-29T13:11:24.447Z,2.00
2022-10-29T13:13:59.901Z,2.50
2022-10-29T13:16:31.588Z,2.67
2022-10-29T13:19:36.798Z,2.97
2022-10-29T13:22:33.171Z,2.30
2022-10-29T13:25:48.541Z,3.00
2022-10-29T13:28:53.701Z,2.10
2022-10-29T13:31:51.696Z,2.27
2022-10-29T13:34:55.727Z,2.20
2022-10-29T13:37:54.802Z,2.13
2022-10-29T13:41:02.785Z,1.87
2022-10-29T13:43:33.327Z,2.57
2022-10-29T13:46:32.092Z,2.87
2022-10-29T13:49:04.290Z,2.50
2022-10-29T13:51:46.586Z,2.50
2022-10-29T13:57:01.219Z,2.10
2022-10-29T13:59:41.778Z,2.33
2022-10-29T14:02:30.617Z,2.53
2022-10-29T14:05:10.120Z,2.87
2022-10-29T14:07:48.985Z,1.93
2022-10-29T14:10:24.039Z,2.07
2022-10-29T14:13:01.882Z,2.53
2022-10-29T14:15:30.148Z,2.07
2022-10-29T14:18:19.210Z,2.53
2022-10-29T14:21:01.837Z,2.23
2022-10-29T14:23:32.657Z,2.17
2022-10-29T14:28:47.280Z,2.10
2022-10-29T14:31:21.517Z,2.23
2022-10-29T14:33:56.505Z,2.33
2022-10-29T14:36:31.939Z,2.77
2022-10-29T14:39:03.927Z,1.90
2022-10-29T14:41:33.208Z,2.17
2022-10-29T14:44:10.756Z,2.20
2022-10-29T14:46:39.839Z,2.50
2022-10-29T14:49:17.113Z,1.90
2022-10-29T14:51:54.466Z,2.30
2022-10-29T14:54:27.335Z,2.70
2022-10-29T14:57:00.242Z,2.40
2022-10-29T14:59:33.395Z,1.97
2022-10-29T15:02:32.084Z,2.10
2022-10-29T15:05:01.850Z,2.33
2022-10-29T15:07:36.592Z,3.13
2022-10-29T15:10:23.939Z,5.47
2022-10-29T15:12:53.791Z,2.70
2022-10-29T15:15:31.253Z,2.70
2022-10-29T15:18:05.686Z,2.77
2022-10-29T15:20:54.233Z,3.00
2022-10-29T15:23:27.957Z,3.97
2022-10-29T15:26:02.913Z,3.07
2022-10-29T15:28:40.937Z,2.73
2022-10-29T15:31:22.269Z,2.57
2022-10-29T15:33:53.383Z,2.90
2022-10-29T15:36:22.096Z,2.10
2022-10-29T15:39:21.676Z,3.10
2022-10-29T15:41:51.714Z,2.33
2022-10-29T15:44:39.533Z,2.40
2022-10-29T15:47:27.741Z,2.17
2022-10-29T15:49:56.498Z,2.33
2022-10-29T15:52:31.954Z,2.17
2022-10-29T15:55:02.504Z,2.27
2022-10-29T15:57:31.904Z,2.50
2022-10-29T16:00:06.451Z,2.73
2022-10-29T16:02:36.280Z,2.33
2022-10-29T16:05:05.170Z,2.27
2022-10-29T16:07:34.016Z,2.20
2022-10-29T16:10:04.648Z,2.40
2022-10-29T16:12:32.890Z,2.67
2022-10-29T16:15:01.348Z,2.33
2022-10-29T16:17:30.147Z,2.30
2022-10-29T16:19:59.762Z,3.23
2022-10-29T16:22:30.610Z,3.17
2022-10-29T16:24:58.934Z,2.43
2022-10-29T16:27:27.187Z,2.37
2022-10-29T16:29:55.333Z,2.73
2022-10-29T16:32:25.295Z,2.83
2022-10-29T16:34:53.469Z,3.17
2022-10-29T16:37:23.051Z,3.13
2022-10-29T16:39:51.467Z,2.70
2022-10-29T16:42:31.626Z,2.93
2022-10-29T16:45:03.077Z,2.60
2022-10-29T16:47:31.180Z,2.67
2022-10-29T16:49:59.433Z,2.70
2022-10-29T16:52:29.827Z,3.10
2022-10-29T16:54:58.203Z,3.20
2022-10-29T16:57:26.503Z,3.00
2022-10-29T16:59:54.660Z,2.87
2022-10-29T17:02:22.776Z,2.30
2022-10-29T17:04:50.980Z,3.10
2022-10-29T17:07:19.222Z,2.70
2022-10-29T17:09:48.657Z,3.00
2022-10-29T17:12:17.130Z,2.57
2022-10-29T17:14:45.359Z,2.90
2022-10-29T17:17:13.549Z,2.83
2022-10-29T17:19:41.768Z,3.07
2022-10-29T17:22:11.390Z,2.93
2022-10-29T17:24:39.533Z,2.80
2022-10-29T17:27:11.138Z,3.03
2022-10-29T17:29:39.749Z,3.40
2022-10-29T17:32:09.379Z,3.33
2022-10-29T17:34:37.684Z,2.50
2022-10-29T17:37:06.340Z,3.10
2022-10-29T17:39:36.994Z,3.20
2022-10-29T17:42:05.604Z,3.47
2022-10-29T17:44:36.154Z,3.30
2022-10-29T17:47:04.453Z,3.00
2022-10-29T17:49:32.452Z,2.97
2022-10-29T17:52:00.612Z,3.20
2022-10-29T17:54:28.736Z,3.73
2022-10-29T17:56:56.846Z,3.53
2022-10-29T17:59:24.937Z,4.77
2022-10-29T18:01:54.567Z,4.70
2022-10-29T18:04:22.805Z,4.00
2022-10-29T18:06:51.151Z,3.73
2022-10-29T18:09:21.186Z,3.27
2022-10-29T18:11:50.200Z,3.00
2022-10-29T18:14:18.336Z,3.10
2022-10-29T18:16:46.745Z,3.07
2022-10-29T18:19:17.269Z,3.27
2022-10-29T18:21:45.426Z,3.90
2022-10-29T18:24:13.562Z,3.77
2022-10-29T18:26:41.709Z,3.00
2022-10-29T18:29:12.942Z,2.87
2022-10-29T18:31:44.883Z,3.00
2022-10-29T18:34:16.838Z,3.00
2022-10-29T18:36:47.414Z,3.63
2022-10-29T18:39:15.644Z,3.70
2022-10-29T18:41:43.758Z,3.53
2022-10-29T18:44:11.891Z,3.00
2022-10-29T18:46:39.979Z,3.17
2022-10-29T18:49:08.123Z,3.33
2022-10-29T18:51:37.564Z,3.27
2022-10-29T18:54:06.607Z,3.17
2022-10-29T18:56:34.784Z,3.20
2022-10-29T18:59:03.007Z,3.07
2022-10-29T19:01:33.666Z,2.87
2022-10-29T19:04:04.307Z,4.53
2022-10-29T19:06:35.854Z,4.17
2022-10-29T19:09:07.796Z,4.53
2022-10-29T19:11:36.495Z,4.97
2022-10-29T19:14:07.346Z,4.07
2022-10-29T19:16:35.720Z,3.20
2022-10-29T19:19:08.176Z,3.10
2022-10-29T19:21:38.290Z,3.17
2022-10-29T19:24:11.633Z,3.10
2022-10-29T19:26:39.731Z,2.63
2022-10-29T19:29:08.741Z,2.60
2022-10-29T19:31:37.766Z,2.97
2022-10-29T19:34:09.070Z,3.07
2022-10-29T19:36:39.915Z,3.17
2022-10-29T19:39:09.480Z,3.17
2022-10-29T19:41:37.567Z,3.93
2022-10-29T19:44:06.543Z,4.70
2022-10-29T19:46:34.687Z,2.67
2022-10-29T19:49:03.533Z,3.37
2022-10-29T19:51:31.716Z,3.63
2022-10-29T19:54:01.876Z,3.93
2022-10-29T19:56:31.449Z,3.00
2022-10-29T19:58:59.758Z,3.47
2022-10-29T20:01:27.895Z,4.10
2022-10-29T20:03:56.155Z,4.40
2022-10-29T20:06:24.356Z,3.73
2022-10-29T20:08:52.471Z,3.43
2022-10-29T20:11:20.634Z,3.93
2022-10-29T20:13:50.145Z,3.67
2022-10-29T20:16:20.443Z,3.80
2022-10-29T20:18:49.859Z,4.20
2022-10-29T20:21:18.273Z,5.47
2022-10-29T20:23:47.141Z,5.03
2022-10-29T20:26:15.390Z,5.70
2022-10-29T20:28:43.708Z,4.03
2022-10-29T20:31:30.019Z,3.77
2022-10-29T20:34:01.074Z,3.87
2022-10-29T20:36:32.234Z,3.60
2022-10-29T20:39:00.732Z,3.10
2022-10-29T20:41:29.740Z,3.53
2022-10-29T20:44:01.122Z,3.67
2022-10-29T20:46:30.893Z,3.57
2022-10-29T20:48:59.409Z,3.40
2022-10-29T20:51:28.030Z,3.30
2022-10-29T20:53:56.687Z,3.27
2022-10-29T20:56:27.619Z,3.07
2022-10-29T20:58:55.806Z,3.13
2022-10-29T21:01:25.998Z,3.30
2022-10-29T21:03:55.794Z,3.57
2022-10-29T21:06:24.256Z,4.07
2022-10-29T21:08:53.637Z,3.30
2022-10-29T21:11:24.031Z,3.80
2022-10-29T21:13:54.578Z,3.67
2022-10-29T21:16:24.898Z,3.40
2022-10-29T21:18:57.111Z,3.37
2022-10-29T21:21:26.295Z,3.23
2022-10-29T21:23:54.998Z,4.23
2022-10-29T21:26:26.005Z,3.23
2022-10-29T21:28:55.997Z,3.07
2022-10-29T21:31:25.144Z,3.40
2022-10-29T21:33:55.861Z,3.47
2022-10-29T21:36:24.255Z,3.67
2022-10-29T21:38:52.894Z,3.77
2022-10-29T21:41:21.056Z,3.47
2022-10-29T21:43:49.293Z,3.27
2022-10-29T21:46:17.456Z,3.03
2022-10-29T21:48:45.531Z,3.10
2022-10-29T21:51:17.099Z,3.03
2022-10-29T21:53:45.272Z,3.27
2022-10-29T21:56:15.775Z,3.43
2022-10-29T21:58:44.382Z,3.20
2022-10-29T22:04:07.694Z,2.80
2022-10-29T22:06:37.157Z,3.83
2022-10-29T22:09:05.349Z,3.20
2022-10-29T22:11:33.505Z,3.53
2022-10-29T22:14:01.846Z,3.13
2022-10-29T22:16:30.031Z,3.30
2022-10-29T22:18:58.200Z,3.30
2022-10-29T22:21:27.716Z,3.40
2022-10-29T22:23:59.234Z,3.10
2022-10-29T22:26:30.307Z,3.53
2022-10-29T22:28:58.564Z,2.90
2022-10-29T22:31:27.374Z,3.43
2022-10-29T22:33:55.958Z,3.03
2022-10-29T22:36:26.601Z,2.80
2022-10-29T22:38:57.254Z,3.37
2022-10-29T22:41:26.734Z,3.30
2022-10-29T22:43:55.530Z,3.00
2022-10-29T22:46:23.782Z,2.93
2022-10-29T22:48:52.075Z,2.93
2022-10-29T22:51:22.525Z,3.03
2022-10-29T22:53:52.063Z,3.07
2022-10-29T22:56:24.675Z,2.80
2022-10-29T22:58:53.419Z,3.10
2022-10-29T23:01:24.976Z,2.63
2022-10-29T23:03:53.953Z,3.20
2022-10-29T23:06:24.159Z,2.73
2022-10-29T23:08:54.350Z,3.07
2022-10-29T23:11:26.022Z,2.73
2022-10-29T23:13:56.551Z,2.50
2022-10-29T23:16:26.866Z,2.40
2022-10-29T23:18:57.542Z,2.63
2022-10-29T23:21:25.931Z,2.60
2022-10-29T23:23:54.870Z,3.10
2022-10-29T23:26:26.397Z,2.87
2022-10-29T23:28:54.756Z,2.93
2022-10-29T23:31:25.210Z,3.00
2022-10-29T23:33:56.449Z,3.13
2022-10-29T23:36:27.648Z,2.97
2022-10-29T23:38:57.008Z,2.70
2022-10-29T23:41:27.089Z,2.87
2022-10-29T23:43:55.400Z,3.13
2022-10-29T23:46:23.968Z,2.40
2022-10-29T23:48:52.124Z,3.00
2022-10-29T23:51:20.828Z,2.50
2022-10-29T23:53:51.649Z,2.33
2022-10-29T23:56:22.877Z,2.73
2022-10-29T23:58:52.333Z,2.53
